sensor_id;sensor_type;location;lat;lon;timestamp;temperature;humidity
35299;DHT22;21415;48.054;16.646;2022-09-03T00:01:32;19.80;44.90
35299;DHT22;21415;48.054;16.646;2022-09-03T00:04:04;19.80;44.80
35299;DHT22;21415;48.054;16.646;2022-09-03T00:06:42;19.80;44.60
35299;DHT22;21415;48.054;16.646;2022-09-03T00:09:24;19.70;44.60
35299;DHT22;21415;48.054;16.646;2022-09-03T00:12:04;19.70;44.60
35299;DHT22;21415;48.054;16.646;2022-09-03T00:17:16;19.70;44.80
35299;DHT22;21415;48.054;16.646;2022-09-03T00:19:51;19.70;44.80
35299;DHT22;21415;48.054;16.646;2022-09-03T00:22:23;19.70;44.80
35299;DHT22;21415;48.054;16.646;2022-09-03T00:24:52;19.70;44.60
35299;DHT22;21415;48.054;16.646;2022-09-03T00:27:19;19.70;44.40
35299;DHT22;21415;48.054;16.646;2022-09-03T00:29:56;19.70;44.40
35299;DHT22;21415;48.054;16.646;2022-09-03T00:35:06;19.70;44.50
35299;DHT22;21415;48.054;16.646;2022-09-03T00:37:33;19.70;44.30
35299;DHT22;21415;48.054;16.646;2022-09-03T00:39:59;19.60;44.20
35299;DHT22;21415;48.054;16.646;2022-09-03T00:42:42;19.60;44.30
35299;DHT22;21415;48.054;16.646;2022-09-03T00:45:31;19.60;44.80
35299;DHT22;21415;48.054;16.646;2022-09-03T00:48:21;19.60;44.90
35299;DHT22;21415;48.054;16.646;2022-09-03T00:56:16;19.60;44.50
35299;DHT22;21415;48.054;16.646;2022-09-03T00:58:53;19.60;44.40
35299;DHT22;21415;48.054;16.646;2022-09-03T01:01:27;19.60;44.60
35299;DHT22;21415;48.054;16.646;2022-09-03T01:12:53;19.50;45.00
35299;DHT22;21415;48.054;16.646;2022-09-03T01:15:33;19.50;45.10
35299;DHT22;21415;48.054;16.646;2022-09-03T01:20:44;19.40;45.00
35299;DHT22;21415;48.054;16.646;2022-09-03T01:42:50;19.40;45.70
35299;DHT22;21415;48.054;16.646;2022-09-03T01:48:07;19.30;45.40
35299;DHT22;21415;48.054;16.646;2022-09-03T01:56:14;19.40;45.60
35299;DHT22;21415;48.054;16.646;2022-09-03T01:58:53;19.30;45.70
35299;DHT22;21415;48.054;16.646;2022-09-03T02:03:58;19.30;45.60
35299;DHT22;21415;48.054;16.646;2022-09-03T02:06:28;19.30;45.40
35299;DHT22;21415;48.054;16.646;2022-09-03T02:08:57;19.30;45.70
35299;DHT22;21415;48.054;16.646;2022-09-03T02:11:23;19.20;45.50
35299;DHT22;21415;48.054;16.646;2022-09-03T02:13:53;19.20;45.60
35299;DHT22;21415;48.054;16.646;2022-09-03T02:16:22;19.20;45.90
35299;DHT22;21415;48.054;16.646;2022-09-03T02:18:52;19.20;45.80
35299;DHT22;21415;48.054;16.646;2022-09-03T02:21:21;19.20;45.90
35299;DHT22;21415;48.054;16.646;2022-09-03T02:23:47;19.20;46.00
35299;DHT22;21415;48.054;16.646;2022-09-03T02:26:18;19.20;45.90
35299;DHT22;21415;48.054;16.646;2022-09-03T02:28:45;19.20;46.20
35299;DHT22;21415;48.054;16.646;2022-09-03T02:31:12;19.20;46.10
35299;DHT22;21415;48.054;16.646;2022-09-03T02:33:39;19.20;46.10
35299;DHT22;21415;48.054;16.646;2022-09-03T02:36:10;19.20;46.20
35299;DHT22;21415;48.054;16.646;2022-09-03T02:38:36;19.20;46.40
35299;DHT22;21415;48.054;16.646;2022-09-03T02:41:02;19.20;46.30
35299;DHT22;21415;48.054;16.646;2022-09-03T02:46:13;19.20;46.70
35299;DHT22;21415;48.054;16.646;2022-09-03T02:48:41;19.20;46.50
35299;DHT22;21415;48.054;16.646;2022-09-03T02:51:07;19.20;46.30
35299;DHT22;21415;48.054;16.646;2022-09-03T02:53:33;19.10;46.20
35299;DHT22;21415;48.054;16.646;2022-09-03T02:56:00;19.10;46.20
35299;DHT22;21415;48.054;16.646;2022-09-03T02:58:26;19.10;46.30
35299;DHT22;21415;48.054;16.646;2022-09-03T03:00:53;19.10;46.40
35299;DHT22;21415;48.054;16.646;2022-09-03T03:03:19;19.10;46.40
35299;DHT22;21415;48.054;16.646;2022-09-03T03:05:51;19.10;46.40
35299;DHT22;21415;48.054;16.646;2022-09-03T03:08:18;19.10;46.60
35299;DHT22;21415;48.054;16.646;2022-09-03T03:10:51;19.10;46.50
35299;DHT22;21415;48.054;16.646;2022-09-03T03:13:17;19.10;46.70
35299;DHT22;21415;48.054;16.646;2022-09-03T03:15:43;19.10;46.50
35299;DHT22;21415;48.054;16.646;2022-09-03T03:18:10;19.00;46.50
35299;DHT22;21415;48.054;16.646;2022-09-03T03:20:39;19.00;46.60
35299;DHT22;21415;48.054;16.646;2022-09-03T03:23:06;19.00;46.70
35299;DHT22;21415;48.054;16.646;2022-09-03T03:25:34;19.00;46.80
35299;DHT22;21415;48.054;16.646;2022-09-03T03:28:00;19.10;46.90
35299;DHT22;21415;48.054;16.646;2022-09-03T03:30:26;19.00;46.80
35299;DHT22;21415;48.054;16.646;2022-09-03T03:32:53;19.10;46.80
35299;DHT22;21415;48.054;16.646;2022-09-03T03:35:19;19.10;46.90
35299;DHT22;21415;48.054;16.646;2022-09-03T03:37:45;19.10;46.90
35299;DHT22;21415;48.054;16.646;2022-09-03T03:40:11;19.10;46.90
35299;DHT22;21415;48.054;16.646;2022-09-03T03:42:37;19.10;47.00
35299;DHT22;21415;48.054;16.646;2022-09-03T03:45:04;19.10;47.10
35299;DHT22;21415;48.054;16.646;2022-09-03T03:47:31;19.10;47.20
35299;DHT22;21415;48.054;16.646;2022-09-03T03:49:58;19.10;47.40
35299;DHT22;21415;48.054;16.646;2022-09-03T03:52:25;19.10;47.50
35299;DHT22;21415;48.054;16.646;2022-09-03T03:54:52;19.00;47.50
35299;DHT22;21415;48.054;16.646;2022-09-03T03:57:19;19.00;47.70
35299;DHT22;21415;48.054;16.646;2022-09-03T03:59:46;19.00;47.80
35299;DHT22;21415;48.054;16.646;2022-09-03T04:02:13;19.00;47.90
35299;DHT22;21415;48.054;16.646;2022-09-03T04:04:39;19.00;48.10
35299;DHT22;21415;48.054;16.646;2022-09-03T04:07:05;19.00;48.00
35299;DHT22;21415;48.054;16.646;2022-09-03T04:09:30;19.00;48.10
35299;DHT22;21415;48.054;16.646;2022-09-03T04:11:56;18.90;48.10
35299;DHT22;21415;48.054;16.646;2022-09-03T04:14:23;18.90;48.10
35299;DHT22;21415;48.054;16.646;2022-09-03T04:16:48;18.90;48.30
35299;DHT22;21415;48.054;16.646;2022-09-03T04:19:16;19.00;48.30
35299;DHT22;21415;48.054;16.646;2022-09-03T04:21:42;19.00;48.00
35299;DHT22;21415;48.054;16.646;2022-09-03T04:24:07;19.00;48.30
35299;DHT22;21415;48.054;16.646;2022-09-03T04:26:33;19.00;47.90
35299;DHT22;21415;48.054;16.646;2022-09-03T04:29:02;19.00;48.40
35299;DHT22;21415;48.054;16.646;2022-09-03T04:31:28;19.00;48.20
35299;DHT22;21415;48.054;16.646;2022-09-03T04:33:54;18.90;48.30
35299;DHT22;21415;48.054;16.646;2022-09-03T04:36:22;18.90;48.50
35299;DHT22;21415;48.054;16.646;2022-09-03T04:38:51;18.90;48.90
35299;DHT22;21415;48.054;16.646;2022-09-03T04:41:20;18.90;49.00
35299;DHT22;21415;48.054;16.646;2022-09-03T04:43:46;18.90;49.20
35299;DHT22;21415;48.054;16.646;2022-09-03T04:46:14;18.90;49.30
35299;DHT22;21415;48.054;16.646;2022-09-03T04:48:40;18.90;49.40
35299;DHT22;21415;48.054;16.646;2022-09-03T04:51:14;18.90;49.60
35299;DHT22;21415;48.054;16.646;2022-09-03T04:53:43;19.00;49.90
35299;DHT22;21415;48.054;16.646;2022-09-03T04:56:14;19.00;49.90
35299;DHT22;21415;48.054;16.646;2022-09-03T04:58:41;19.00;50.30
35299;DHT22;21415;48.054;16.646;2022-09-03T05:01:10;19.00;50.10
35299;DHT22;21415;48.054;16.646;2022-09-03T05:03:37;19.00;50.30
35299;DHT22;21415;48.054;16.646;2022-09-03T05:06:03;19.10;50.30
35299;DHT22;21415;48.054;16.646;2022-09-03T05:08:30;19.10;50.30
35299;DHT22;21415;48.054;16.646;2022-09-03T05:11:00;19.20;50.30
35299;DHT22;21415;48.054;16.646;2022-09-03T05:13:26;19.20;50.60
35299;DHT22;21415;48.054;16.646;2022-09-03T05:15:58;19.20;50.20
35299;DHT22;21415;48.054;16.646;2022-09-03T05:18:25;19.30;50.70
35299;DHT22;21415;48.054;16.646;2022-09-03T05:21:03;19.40;50.30
35299;DHT22;21415;48.054;16.646;2022-09-03T05:23:29;19.40;50.70
35299;DHT22;21415;48.054;16.646;2022-09-03T05:25:57;19.50;50.20
35299;DHT22;21415;48.054;16.646;2022-09-03T05:28:27;19.50;50.20
35299;DHT22;21415;48.054;16.646;2022-09-03T05:31:01;19.60;50.20
35299;DHT22;21415;48.054;16.646;2022-09-03T05:33:28;19.60;50.40
35299;DHT22;21415;48.054;16.646;2022-09-03T05:36:01;19.70;50.30
35299;DHT22;21415;48.054;16.646;2022-09-03T05:38:27;19.70;50.50
35299;DHT22;21415;48.054;16.646;2022-09-03T05:40:55;19.80;50.10
35299;DHT22;21415;48.054;16.646;2022-09-03T05:43:22;19.80;50.10
35299;DHT22;21415;48.054;16.646;2022-09-03T05:45:48;20.10;50.20
35299;DHT22;21415;48.054;16.646;2022-09-03T05:48:13;20.00;50.00
35299;DHT22;21415;48.054;16.646;2022-09-03T05:50:39;20.00;50.00
35299;DHT22;21415;48.054;16.646;2022-09-03T05:53:05;20.10;50.00
35299;DHT22;21415;48.054;16.646;2022-09-03T05:55:31;20.20;50.10
35299;DHT22;21415;48.054;16.646;2022-09-03T05:57:57;20.20;50.00
35299;DHT22;21415;48.054;16.646;2022-09-03T06:00:23;20.30;50.00
35299;DHT22;21415;48.054;16.646;2022-09-03T06:02:50;20.40;50.00
35299;DHT22;21415;48.054;16.646;2022-09-03T06:05:17;20.50;49.60
35299;DHT22;21415;48.054;16.646;2022-09-03T06:07:44;20.50;49.70
35299;DHT22;21415;48.054;16.646;2022-09-03T06:10:13;20.60;49.80
35299;DHT22;21415;48.054;16.646;2022-09-03T06:12:40;20.60;49.80
35299;DHT22;21415;48.054;16.646;2022-09-03T06:15:06;20.70;49.80
35299;DHT22;21415;48.054;16.646;2022-09-03T06:17:32;20.80;49.70
35299;DHT22;21415;48.054;16.646;2022-09-03T06:19:58;20.90;49.50
35299;DHT22;21415;48.054;16.646;2022-09-03T06:22:24;21.00;49.40
35299;DHT22;21415;48.054;16.646;2022-09-03T06:24:52;21.10;49.30
35299;DHT22;21415;48.054;16.646;2022-09-03T06:27:18;21.20;49.20
35299;DHT22;21415;48.054;16.646;2022-09-03T06:29:45;21.20;49.00
35299;DHT22;21415;48.054;16.646;2022-09-03T06:32:11;21.40;48.90
35299;DHT22;21415;48.054;16.646;2022-09-03T06:34:37;21.40;48.80
35299;DHT22;21415;48.054;16.646;2022-09-03T06:37:03;21.50;48.70
35299;DHT22;21415;48.054;16.646;2022-09-03T06:39:28;21.60;48.70
35299;DHT22;21415;48.054;16.646;2022-09-03T06:41:54;21.70;48.80
35299;DHT22;21415;48.054;16.646;2022-09-03T06:44:26;21.70;48.70
35299;DHT22;21415;48.054;16.646;2022-09-03T06:46:52;21.80;48.70
35299;DHT22;21415;48.054;16.646;2022-09-03T06:49:18;21.90;48.50
35299;DHT22;21415;48.054;16.646;2022-09-03T06:51:44;22.00;48.50
35299;DHT22;21415;48.054;16.646;2022-09-03T06:54:11;22.00;48.40
35299;DHT22;21415;48.054;16.646;2022-09-03T06:56:38;22.10;48.40
35299;DHT22;21415;48.054;16.646;2022-09-03T06:59:14;22.20;48.50
35299;DHT22;21415;48.054;16.646;2022-09-03T07:01:40;22.30;48.50
35299;DHT22;21415;48.054;16.646;2022-09-03T07:04:07;22.40;48.40
35299;DHT22;21415;48.054;16.646;2022-09-03T07:06:38;22.50;48.20
35299;DHT22;21415;48.054;16.646;2022-09-03T07:09:05;22.50;48.10
35299;DHT22;21415;48.054;16.646;2022-09-03T07:11:32;22.60;47.90
35299;DHT22;21415;48.054;16.646;2022-09-03T07:14:01;22.70;47.90
35299;DHT22;21415;48.054;16.646;2022-09-03T07:16:33;22.80;47.80
35299;DHT22;21415;48.054;16.646;2022-09-03T07:18:59;22.80;47.90
35299;DHT22;21415;48.054;16.646;2022-09-03T07:21:30;22.90;47.80
35299;DHT22;21415;48.054;16.646;2022-09-03T07:23:56;23.00;47.60
35299;DHT22;21415;48.054;16.646;2022-09-03T07:26:28;23.10;47.50
35299;DHT22;21415;48.054;16.646;2022-09-03T07:28:55;23.20;47.50
35299;DHT22;21415;48.054;16.646;2022-09-03T07:31:29;23.30;47.50
35299;DHT22;21415;48.054;16.646;2022-09-03T07:34:04;23.30;47.30
35299;DHT22;21415;48.054;16.646;2022-09-03T07:36:38;23.40;47.70
35299;DHT22;21415;48.054;16.646;2022-09-03T07:39:04;23.50;47.20
35299;DHT22;21415;48.054;16.646;2022-09-03T07:41:30;23.50;47.10
35299;DHT22;21415;48.054;16.646;2022-09-03T07:44:00;23.70;47.00
35299;DHT22;21415;48.054;16.646;2022-09-03T07:46:30;23.70;46.90
35299;DHT22;21415;48.054;16.646;2022-09-03T07:48:57;23.80;47.00
35299;DHT22;21415;48.054;16.646;2022-09-03T07:51:26;23.80;46.70
35299;DHT22;21415;48.054;16.646;2022-09-03T07:53:57;23.90;46.80
35299;DHT22;21415;48.054;16.646;2022-09-03T07:56:24;24.00;46.70
35299;DHT22;21415;48.054;16.646;2022-09-03T07:58:51;24.00;46.70
35299;DHT22;21415;48.054;16.646;2022-09-03T08:01:18;24.10;46.70
35299;DHT22;21415;48.054;16.646;2022-09-03T08:03:46;24.20;46.50
35299;DHT22;21415;48.054;16.646;2022-09-03T08:06:14;24.30;46.20
35299;DHT22;21415;48.054;16.646;2022-09-03T08:08:40;24.40;46.20
35299;DHT22;21415;48.054;16.646;2022-09-03T08:11:11;24.40;46.00
35299;DHT22;21415;48.054;16.646;2022-09-03T08:13:38;24.50;45.90
35299;DHT22;21415;48.054;16.646;2022-09-03T08:16:06;24.50;45.90
35299;DHT22;21415;48.054;16.646;2022-09-03T08:18:34;24.60;45.90
35299;DHT22;21415;48.054;16.646;2022-09-03T08:21:11;24.70;45.80
35299;DHT22;21415;48.054;16.646;2022-09-03T08:23:41;24.70;45.60
35299;DHT22;21415;48.054;16.646;2022-09-03T08:26:07;24.80;45.80
35299;DHT22;21415;48.054;16.646;2022-09-03T08:28:34;24.90;45.80
35299;DHT22;21415;48.054;16.646;2022-09-03T08:33:37;25.00;45.50
35299;DHT22;21415;48.054;16.646;2022-09-03T08:36:09;25.10;45.30
35299;DHT22;21415;48.054;16.646;2022-09-03T08:38:35;25.10;45.10
35299;DHT22;21415;48.054;16.646;2022-09-03T08:41:04;25.20;45.20
35299;DHT22;21415;48.054;16.646;2022-09-03T08:44:03;25.30;45.10
35299;DHT22;21415;48.054;16.646;2022-09-03T08:46:33;25.30;44.90
35299;DHT22;21415;48.054;16.646;2022-09-03T08:49:02;25.30;44.90
35299;DHT22;21415;48.054;16.646;2022-09-03T08:51:30;25.40;44.90
35299;DHT22;21415;48.054;16.646;2022-09-03T08:53:57;25.50;44.90
35299;DHT22;21415;48.054;16.646;2022-09-03T08:56:26;25.50;44.80
35299;DHT22;21415;48.054;16.646;2022-09-03T08:58:54;25.60;44.70
35299;DHT22;21415;48.054;16.646;2022-09-03T09:07:31;25.70;44.30
35299;DHT22;21415;48.054;16.646;2022-09-03T09:10:19;25.80;44.30
35299;DHT22;21415;48.054;16.646;2022-09-03T09:12:57;25.90;44.40
35299;DHT22;21415;48.054;16.646;2022-09-03T09:15:42;25.90;44.30
35299;DHT22;21415;48.054;16.646;2022-09-03T09:18:53;26.00;44.20
35299;DHT22;21415;48.054;16.646;2022-09-03T09:21:29;26.10;44.20
35299;DHT22;21415;48.054;16.646;2022-09-03T09:24:01;26.10;44.30
35299;DHT22;21415;48.054;16.646;2022-09-03T09:26:29;26.30;44.10
35299;DHT22;21415;48.054;16.646;2022-09-03T09:28:59;26.30;44.10
35299;DHT22;21415;48.054;16.646;2022-09-03T09:31:26;26.40;43.90
35299;DHT22;21415;48.054;16.646;2022-09-03T09:34:00;26.40;43.70
35299;DHT22;21415;48.054;16.646;2022-09-03T09:36:27;26.50;43.60
35299;DHT22;21415;48.054;16.646;2022-09-03T09:38:52;26.50;43.40
35299;DHT22;21415;48.054;16.646;2022-09-03T09:41:20;26.60;43.20
35299;DHT22;21415;48.054;16.646;2022-09-03T09:43:59;26.60;43.30
35299;DHT22;21415;48.054;16.646;2022-09-03T09:46:34;26.70;42.50
35299;DHT22;21415;48.054;16.646;2022-09-03T09:49:00;26.80;43.20
35299;DHT22;21415;48.054;16.646;2022-09-03T09:51:28;26.80;43.90
35299;DHT22;21415;48.054;16.646;2022-09-03T09:54:11;26.90;43.10
35299;DHT22;21415;48.054;16.646;2022-09-03T09:56:38;26.90;42.50
35299;DHT22;21415;48.054;16.646;2022-09-03T09:59:06;27.00;42.80
35299;DHT22;21415;48.054;16.646;2022-09-03T10:01:34;27.00;42.70
35299;DHT22;21415;48.054;16.646;2022-09-03T10:06:53;27.10;42.60
35299;DHT22;21415;48.054;16.646;2022-09-03T10:09:29;27.20;42.40
35299;DHT22;21415;48.054;16.646;2022-09-03T10:12:08;27.30;42.40
35299;DHT22;21415;48.054;16.646;2022-09-03T10:20:21;27.60;41.40
35299;DHT22;21415;48.054;16.646;2022-09-03T10:28:06;27.70;41.40
35299;DHT22;21415;48.054;16.646;2022-09-03T10:33:35;27.80;42.00
35299;DHT22;21415;48.054;16.646;2022-09-03T10:38:42;27.80;41.10
35299;DHT22;21415;48.054;16.646;2022-09-03T10:41:31;27.80;41.20
35299;DHT22;21415;48.054;16.646;2022-09-03T10:46:56;27.90;40.90
35299;DHT22;21415;48.054;16.646;2022-09-03T10:49:38;27.90;40.40
35299;DHT22;21415;48.054;16.646;2022-09-03T11:00:32;28.00;40.10
35299;DHT22;21415;48.054;16.646;2022-09-03T11:05:57;28.00;39.70
35299;DHT22;21415;48.054;16.646;2022-09-03T11:11:23;28.10;39.60
35299;DHT22;21415;48.054;16.646;2022-09-03T11:13:57;28.10;40.20
35299;DHT22;21415;48.054;16.646;2022-09-03T11:16:39;28.20;39.80
35299;DHT22;21415;48.054;16.646;2022-09-03T11:19:08;28.20;39.40
35299;DHT22;21415;48.054;16.646;2022-09-03T11:21:37;28.20;39.80
35299;DHT22;21415;48.054;16.646;2022-09-03T11:24:13;28.20;40.00
35299;DHT22;21415;48.054;16.646;2022-09-03T11:26:44;28.20;39.50
35299;DHT22;21415;48.054;16.646;2022-09-03T11:29:18;28.30;39.40
35299;DHT22;21415;48.054;16.646;2022-09-03T11:32:01;28.30;39.40
35299;DHT22;21415;48.054;16.646;2022-09-03T11:34:47;28.40;39.10
35299;DHT22;21415;48.054;16.646;2022-09-03T11:37:18;28.40;39.00
35299;DHT22;21415;48.054;16.646;2022-09-03T11:39:55;28.50;39.00
35299;DHT22;21415;48.054;16.646;2022-09-03T11:42:28;28.50;38.60
35299;DHT22;21415;48.054;16.646;2022-09-03T11:44:59;28.50;38.60
35299;DHT22;21415;48.054;16.646;2022-09-03T11:47:40;28.60;38.70
35299;DHT22;21415;48.054;16.646;2022-09-03T11:52:49;28.60;38.50
35299;DHT22;21415;48.054;16.646;2022-09-03T11:55:30;28.70;38.70
35299;DHT22;21415;48.054;16.646;2022-09-03T11:58:09;28.60;38.40
35299;DHT22;21415;48.054;16.646;2022-09-03T12:00:36;28.60;38.40
35299;DHT22;21415;48.054;16.646;2022-09-03T12:03:03;28.60;38.20
35299;DHT22;21415;48.054;16.646;2022-09-03T12:05:43;28.60;38.20
35299;DHT22;21415;48.054;16.646;2022-09-03T12:11:39;28.70;38.30
35299;DHT22;21415;48.054;16.646;2022-09-03T12:17:17;28.70;37.80
35299;DHT22;21415;48.054;16.646;2022-09-03T12:19:54;28.70;37.50
35299;DHT22;21415;48.054;16.646;2022-09-03T12:22:23;28.70;37.90
35299;DHT22;21415;48.054;16.646;2022-09-03T12:24:50;28.70;37.90
35299;DHT22;21415;48.054;16.646;2022-09-03T12:29:55;28.70;37.70
35299;DHT22;21415;48.054;16.646;2022-09-03T12:32:29;28.70;37.60
35299;DHT22;21415;48.054;16.646;2022-09-03T12:34:57;28.70;37.80
35299;DHT22;21415;48.054;16.646;2022-09-03T12:37:25;28.70;38.00
35299;DHT22;21415;48.054;16.646;2022-09-03T12:39:53;28.70;37.70
35299;DHT22;21415;48.054;16.646;2022-09-03T12:42:23;28.70;37.70
35299;DHT22;21415;48.054;16.646;2022-09-03T12:44:50;28.70;37.50
35299;DHT22;21415;48.054;16.646;2022-09-03T12:47:17;28.80;37.70
35299;DHT22;21415;48.054;16.646;2022-09-03T12:49:49;28.80;37.60
35299;DHT22;21415;48.054;16.646;2022-09-03T12:54:54;28.90;37.20
35299;DHT22;21415;48.054;16.646;2022-09-03T12:57:38;28.90;37.40
35299;DHT22;21415;48.054;16.646;2022-09-03T13:00:07;28.90;37.20
35299;DHT22;21415;48.054;16.646;2022-09-03T13:02:59;29.00;37.50
35299;DHT22;21415;48.054;16.646;2022-09-03T13:05:32;29.00;37.30
35299;DHT22;21415;48.054;16.646;2022-09-03T13:08:01;29.10;36.80
35299;DHT22;21415;48.054;16.646;2022-09-03T13:10:38;29.10;37.00
35299;DHT22;21415;48.054;16.646;2022-09-03T13:13:30;29.20;36.70
35299;DHT22;21415;48.054;16.646;2022-09-03T13:22:11;29.30;37.00
35299;DHT22;21415;48.054;16.646;2022-09-03T13:34:42;29.60;37.40
35299;DHT22;21415;48.054;16.646;2022-09-03T13:42:47;29.70;36.50
35299;DHT22;21415;48.054;16.646;2022-09-03T13:48:40;29.70;36.20
35299;DHT22;21415;48.054;16.646;2022-09-03T13:51:35;29.70;36.30
35299;DHT22;21415;48.054;16.646;2022-09-03T13:57:07;29.70;36.20
35299;DHT22;21415;48.054;16.646;2022-09-03T13:59:45;29.70;36.20
35299;DHT22;21415;48.054;16.646;2022-09-03T14:05:07;29.70;36.30
35299;DHT22;21415;48.054;16.646;2022-09-03T14:07:46;29.70;35.80
35299;DHT22;21415;48.054;16.646;2022-09-03T14:10:55;29.70;36.00
35299;DHT22;21415;48.054;16.646;2022-09-03T14:16:19;29.80;35.80
35299;DHT22;21415;48.054;16.646;2022-09-03T14:19:08;29.80;35.80
35299;DHT22;21415;48.054;16.646;2022-09-03T14:21:53;29.80;36.00
35299;DHT22;21415;48.054;16.646;2022-09-03T14:27:06;29.90;36.00
35299;DHT22;21415;48.054;16.646;2022-09-03T14:29:33;29.90;36.20
35299;DHT22;21415;48.054;16.646;2022-09-03T14:43:01;30.00;35.90
35299;DHT22;21415;48.054;16.646;2022-09-03T14:46:03;30.10;36.50
35299;DHT22;21415;48.054;16.646;2022-09-03T14:51:25;30.20;36.00
35299;DHT22;21415;48.054;16.646;2022-09-03T14:59:21;30.30;35.60
35299;DHT22;21415;48.054;16.646;2022-09-03T15:02:12;30.20;35.70
35299;DHT22;21415;48.054;16.646;2022-09-03T15:04:54;30.30;35.90
35299;DHT22;21415;48.054;16.646;2022-09-03T15:15:43;30.20;35.30
35299;DHT22;21415;48.054;16.646;2022-09-03T15:24:12;30.10;35.00
35299;DHT22;21415;48.054;16.646;2022-09-03T15:32:49;30.00;35.20
35299;DHT22;21415;48.054;16.646;2022-09-03T15:37:54;29.80;35.30
35299;DHT22;21415;48.054;16.646;2022-09-03T15:40:40;29.80;35.30
35299;DHT22;21415;48.054;16.646;2022-09-03T15:43:25;29.80;35.30
35299;DHT22;21415;48.054;16.646;2022-09-03T15:48:30;29.70;35.40
35299;DHT22;21415;48.054;16.646;2022-09-03T15:51:16;29.70;35.60
35299;DHT22;21415;48.054;16.646;2022-09-03T15:53:50;29.60;35.60
35299;DHT22;21415;48.054;16.646;2022-09-03T15:56:24;29.60;35.70
35299;DHT22;21415;48.054;16.646;2022-09-03T15:59:14;29.50;35.80
35299;DHT22;21415;48.054;16.646;2022-09-03T16:01:53;29.50;35.80
35299;DHT22;21415;48.054;16.646;2022-09-03T16:04:24;29.50;35.90
35299;DHT22;21415;48.054;16.646;2022-09-03T16:12:19;29.30;36.20
35299;DHT22;21415;48.054;16.646;2022-09-03T16:14:59;29.30;36.20
35299;DHT22;21415;48.054;16.646;2022-09-03T16:17:37;29.20;36.30
35299;DHT22;21415;48.054;16.646;2022-09-03T16:20:16;29.20;36.30
35299;DHT22;21415;48.054;16.646;2022-09-03T16:22:47;29.20;36.50
35299;DHT22;21415;48.054;16.646;2022-09-03T16:25:23;29.10;36.50
35299;DHT22;21415;48.054;16.646;2022-09-03T16:27:59;29.10;36.60
35299;DHT22;21415;48.054;16.646;2022-09-03T16:39:09;28.90;36.60
35299;DHT22;21415;48.054;16.646;2022-09-03T16:52:58;28.60;36.60
35299;DHT22;21415;48.054;16.646;2022-09-03T17:01:11;28.50;36.70
35299;DHT22;21415;48.054;16.646;2022-09-03T17:19:58;28.10;37.40
35299;DHT22;21415;48.054;16.646;2022-09-03T17:25:28;28.00;37.50
35299;DHT22;21415;48.054;16.646;2022-09-03T17:36:26;27.80;37.90
35299;DHT22;21415;48.054;16.646;2022-09-03T17:44:14;27.60;38.10
35299;DHT22;21415;48.054;16.646;2022-09-03T17:46:56;27.60;38.20
35299;DHT22;21415;48.054;16.646;2022-09-03T17:49:49;27.50;38.40
35299;DHT22;21415;48.054;16.646;2022-09-03T17:52:48;27.50;38.40
35299;DHT22;21415;48.054;16.646;2022-09-03T17:55:23;27.50;38.50
35299;DHT22;21415;48.054;16.646;2022-09-03T17:58:16;27.40;38.40
35299;DHT22;21415;48.054;16.646;2022-09-03T18:05:54;27.40;38.70
35299;DHT22;21415;48.054;16.646;2022-09-03T18:11:38;27.30;38.90
35299;DHT22;21415;48.054;16.646;2022-09-03T18:22:55;27.20;39.70
35299;DHT22;21415;48.054;16.646;2022-09-03T18:25:44;27.20;39.20
35299;DHT22;21415;48.054;16.646;2022-09-03T18:28:44;27.10;39.20
35299;DHT22;21415;48.054;16.646;2022-09-03T18:31:30;27.10;39.30
35299;DHT22;21415;48.054;16.646;2022-09-03T18:34:28;27.10;39.30
35299;DHT22;21415;48.054;16.646;2022-09-03T18:37:20;27.10;39.60
35299;DHT22;21415;48.054;16.646;2022-09-03T18:40:07;27.00;39.60
35299;DHT22;21415;48.054;16.646;2022-09-03T18:43:18;27.00;39.70
35299;DHT22;21415;48.054;16.646;2022-09-03T18:46:25;26.90;39.90
35299;DHT22;21415;48.054;16.646;2022-09-03T18:49:25;26.90;39.90
35299;DHT22;21415;48.054;16.646;2022-09-03T18:52:55;26.90;40.00
35299;DHT22;21415;48.054;16.646;2022-09-03T18:55:56;26.80;40.00
35299;DHT22;21415;48.054;16.646;2022-09-03T19:01:41;26.80;40.30
35299;DHT22;21415;48.054;16.646;2022-09-03T19:05:05;26.70;40.20
35299;DHT22;21415;48.054;16.646;2022-09-03T19:11:22;26.70;40.60
35299;DHT22;21415;48.054;16.646;2022-09-03T19:18:08;26.60;40.80
35299;DHT22;21415;48.054;16.646;2022-09-03T19:23:46;26.60;41.10
35299;DHT22;21415;48.054;16.646;2022-09-03T19:41:52;26.50;41.20
35299;DHT22;21415;48.054;16.646;2022-09-03T19:50:53;26.40;41.60
35299;DHT22;21415;48.054;16.646;2022-09-03T19:53:40;26.40;41.70
35299;DHT22;21415;48.054;16.646;2022-09-03T19:56:28;26.40;41.60
35299;DHT22;21415;48.054;16.646;2022-09-03T19:59:18;26.40;41.90
35299;DHT22;21415;48.054;16.646;2022-09-03T20:02:03;26.40;41.90
35299;DHT22;21415;48.054;16.646;2022-09-03T20:04:55;26.40;41.90
35299;DHT22;21415;48.054;16.646;2022-09-03T20:07:41;26.30;42.10
35299;DHT22;21415;48.054;16.646;2022-09-03T20:10:27;26.30;41.80
35299;DHT22;21415;48.054;16.646;2022-09-03T20:13:09;26.30;42.00
35299;DHT22;21415;48.054;16.646;2022-09-03T20:16:10;26.30;42.30
35299;DHT22;21415;48.054;16.646;2022-09-03T20:21:41;26.30;42.40
35299;DHT22;21415;48.054;16.646;2022-09-03T20:29:54;26.20;42.20
35299;DHT22;21415;48.054;16.646;2022-09-03T20:40:48;26.10;42.70
35299;DHT22;21415;48.054;16.646;2022-09-03T20:43:37;26.10;42.70
35299;DHT22;21415;48.054;16.646;2022-09-03T20:46:19;26.10;42.90
35299;DHT22;21415;48.054;16.646;2022-09-03T20:51:25;26.00;42.70
35299;DHT22;21415;48.054;16.646;2022-09-03T20:54:21;26.00;43.00
35299;DHT22;21415;48.054;16.646;2022-09-03T21:00:04;25.90;43.00
35299;DHT22;21415;48.054;16.646;2022-09-03T21:05:44;25.90;42.80
35299;DHT22;21415;48.054;16.646;2022-09-03T21:11:10;25.80;42.80
35299;DHT22;21415;48.054;16.646;2022-09-03T21:19:09;25.70;43.00
35299;DHT22;21415;48.054;16.646;2022-09-03T21:21:54;25.70;43.00
35299;DHT22;21415;48.054;16.646;2022-09-03T21:24:58;25.70;43.00
35299;DHT22;21415;48.054;16.646;2022-09-03T21:27:22;25.70;43.10
35299;DHT22;21415;48.054;16.646;2022-09-03T21:29:59;25.60;43.00
35299;DHT22;21415;48.054;16.646;2022-09-03T21:32:34;25.60;43.10
35299;DHT22;21415;48.054;16.646;2022-09-03T21:35:22;25.60;43.20
35299;DHT22;21415;48.054;16.646;2022-09-03T21:40:31;25.60;43.20
35299;DHT22;21415;48.054;16.646;2022-09-03T21:43:16;25.60;43.10